sensor_id;sensor_type;location;lat;lon;timestamp;temperature;humidity
25410;DHT22;13339;50.840;4.346;2023-05-16T00:01:21;11.60;99.90
25410;DHT22;13339;50.840;4.346;2023-05-16T00:03:47;11.30;99.90
25410;DHT22;13339;50.840;4.346;2023-05-16T00:06:13;11.40;99.90
25410;DHT22;13339;50.840;4.346;2023-05-16T00:08:39;11.40;99.90
25410;DHT22;13339;50.840;4.346;2023-05-16T00:11:05;11.50;99.90
25410;DHT22;13339;50.840;4.346;2023-05-16T00:13:31;11.60;99.90
25410;DHT22;13339;50.840;4.346;2023-05-16T00:15:57;11.70;99.90
25410;DHT22;13339;50.840;4.346;2023-05-16T00:18:23;11.80;99.90
25410;DHT22;13339;50.840;4.346;2023-05-16T00:20:51;11.60;99.90
25410;DHT22;13339;50.840;4.346;2023-05-16T00:23:19;11.60;99.90
25410;DHT22;13339;50.840;4.346;2023-05-16T00:25:44;11.50;99.90
25410;DHT22;13339;50.840;4.346;2023-05-16T00:28:11;11.60;99.90
25410;DHT22;13339;50.840;4.346;2023-05-16T00:30:37;11.60;99.90
25410;DHT22;13339;50.840;4.346;2023-05-16T00:33:02;11.60;99.90
25410;DHT22;13339;50.840;4.346;2023-05-16T00:35:28;11.50;99.90
25410;DHT22;13339;50.840;4.346;2023-05-16T00:37:54;11.30;99.90
25410;DHT22;13339;50.840;4.346;2023-05-16T00:40:20;11.30;99.90
25410;DHT22;13339;50.840;4.346;2023-05-16T00:42:46;11.40;99.90
25410;DHT22;13339;50.840;4.346;2023-05-16T00:45:12;11.40;99.90
25410;DHT22;13339;50.840;4.346;2023-05-16T00:47:37;11.30;99.90
25410;DHT22;13339;50.840;4.346;2023-05-16T00:50:03;11.40;99.90
25410;DHT22;13339;50.840;4.346;2023-05-16T00:52:30;11.40;99.90
25410;DHT22;13339;50.840;4.346;2023-05-16T00:54:58;11.50;99.90
25410;DHT22;13339;50.840;4.346;2023-05-16T00:57:23;11.60;99.90
25410;DHT22;13339;50.840;4.346;2023-05-16T00:59:50;11.40;99.90
25410;DHT22;13339;50.840;4.346;2023-05-16T01:02:15;11.30;99.90
25410;DHT22;13339;50.840;4.346;2023-05-16T01:04:42;11.30;99.90
25410;DHT22;13339;50.840;4.346;2023-05-16T01:07:09;11.30;99.90
25410;DHT22;13339;50.840;4.346;2023-05-16T01:09:35;11.20;99.90
25410;DHT22;13339;50.840;4.346;2023-05-16T01:26:26;11.10;99.90
25410;DHT22;13339;50.840;4.346;2023-05-16T01:28:53;11.10;99.90
25410;DHT22;13339;50.840;4.346;2023-05-16T01:31:22;11.10;99.90
25410;DHT22;13339;50.840;4.346;2023-05-16T01:33:48;11.00;99.90
25410;DHT22;13339;50.840;4.346;2023-05-16T01:36:28;11.00;99.90
25410;DHT22;13339;50.840;4.346;2023-05-16T01:42:06;10.90;99.90
25410;DHT22;13339;50.840;4.346;2023-05-16T01:44:48;10.90;99.90
25410;DHT22;13339;50.840;4.346;2023-05-16T01:47:16;10.80;99.90
25410;DHT22;13339;50.840;4.346;2023-05-16T01:52:55;10.80;99.90
25410;DHT22;13339;50.840;4.346;2023-05-16T01:58:15;10.80;99.90
25410;DHT22;13339;50.840;4.346;2023-05-16T02:00:42;10.70;99.90
25410;DHT22;13339;50.840;4.346;2023-05-16T02:03:08;10.70;99.90
25410;DHT22;13339;50.840;4.346;2023-05-16T02:05:34;10.70;99.90
25410;DHT22;13339;50.840;4.346;2023-05-16T02:08:00;10.80;99.90
25410;DHT22;13339;50.840;4.346;2023-05-16T02:10:26;10.80;99.90
25410;DHT22;13339;50.840;4.346;2023-05-16T02:12:52;10.70;99.90
25410;DHT22;13339;50.840;4.346;2023-05-16T02:15:18;10.50;99.90
25410;DHT22;13339;50.840;4.346;2023-05-16T02:17:44;10.50;99.90
25410;DHT22;13339;50.840;4.346;2023-05-16T02:20:10;10.50;99.90
25410;DHT22;13339;50.840;4.346;2023-05-16T02:22:36;10.60;99.90
25410;DHT22;13339;50.840;4.346;2023-05-16T02:25:04;10.70;99.90
25410;DHT22;13339;50.840;4.346;2023-05-16T02:27:30;10.60;99.90
25410;DHT22;13339;50.840;4.346;2023-05-16T02:29:56;10.60;99.90
25410;DHT22;13339;50.840;4.346;2023-05-16T02:32:22;10.60;99.90
25410;DHT22;13339;50.840;4.346;2023-05-16T02:34:48;10.40;99.90
25410;DHT22;13339;50.840;4.346;2023-05-16T02:37:13;10.50;99.90
25410;DHT22;13339;50.840;4.346;2023-05-16T02:39:39;10.50;99.90
25410;DHT22;13339;50.840;4.346;2023-05-16T02:42:06;10.60;99.90
25410;DHT22;13339;50.840;4.346;2023-05-16T02:44:32;10.80;99.90
25410;DHT22;13339;50.840;4.346;2023-05-16T02:46:58;10.60;99.90
25410;DHT22;13339;50.840;4.346;2023-05-16T02:49:23;10.50;99.90
25410;DHT22;13339;50.840;4.346;2023-05-16T02:51:49;10.50;99.90
25410;DHT22;13339;50.840;4.346;2023-05-16T02:54:15;10.70;99.90
25410;DHT22;13339;50.840;4.346;2023-05-16T02:56:40;10.60;99.90
25410;DHT22;13339;50.840;4.346;2023-05-16T02:59:06;10.50;99.90
25410;DHT22;13339;50.840;4.346;2023-05-16T03:01:33;10.40;99.90
25410;DHT22;13339;50.840;4.346;2023-05-16T03:03:59;10.40;99.90
25410;DHT22;13339;50.840;4.346;2023-05-16T03:06:24;10.30;99.90
25410;DHT22;13339;50.840;4.346;2023-05-16T03:08:50;10.20;99.90
25410;DHT22;13339;50.840;4.346;2023-05-16T03:11:17;10.10;99.90
25410;DHT22;13339;50.840;4.346;2023-05-16T03:13:47;10.20;99.90
25410;DHT22;13339;50.840;4.346;2023-05-16T03:16:13;10.20;99.90
25410;DHT22;13339;50.840;4.346;2023-05-16T03:18:40;10.30;99.90
25410;DHT22;13339;50.840;4.346;2023-05-16T03:21:05;10.30;99.90
25410;DHT22;13339;50.840;4.346;2023-05-16T03:23:31;10.30;99.90
25410;DHT22;13339;50.840;4.346;2023-05-16T03:25:57;10.40;99.90
25410;DHT22;13339;50.840;4.346;2023-05-16T03:28:22;10.50;99.90
25410;DHT22;13339;50.840;4.346;2023-05-16T03:30:48;10.50;99.90
25410;DHT22;13339;50.840;4.346;2023-05-16T03:33:13;10.50;99.90
25410;DHT22;13339;50.840;4.346;2023-05-16T03:35:39;10.50;99.90
25410;DHT22;13339;50.840;4.346;2023-05-16T03:38:05;10.40;99.90
25410;DHT22;13339;50.840;4.346;2023-05-16T03:40:31;10.20;99.90
25410;DHT22;13339;50.840;4.346;2023-05-16T03:42:56;10.30;99.90
25410;DHT22;13339;50.840;4.346;2023-05-16T03:45:22;10.30;99.90
25410;DHT22;13339;50.840;4.346;2023-05-16T03:47:48;10.30;99.90
25410;DHT22;13339;50.840;4.346;2023-05-16T03:50:15;10.30;99.90
25410;DHT22;13339;50.840;4.346;2023-05-16T03:52:41;10.30;99.90
25410;DHT22;13339;50.840;4.346;2023-05-16T03:55:07;10.30;99.90
25410;DHT22;13339;50.840;4.346;2023-05-16T03:57:33;10.50;99.90
25410;DHT22;13339;50.840;4.346;2023-05-16T03:59:59;10.60;99.90
25410;DHT22;13339;50.840;4.346;2023-05-16T04:02:25;10.70;99.90
25410;DHT22;13339;50.840;4.346;2023-05-16T04:04:50;10.90;99.90
25410;DHT22;13339;50.840;4.346;2023-05-16T04:07:16;11.10;99.90
25410;DHT22;13339;50.840;4.346;2023-05-16T04:09:42;11.10;99.90
25410;DHT22;13339;50.840;4.346;2023-05-16T04:12:07;11.00;99.90
25410;DHT22;13339;50.840;4.346;2023-05-16T04:14:34;10.90;99.90
25410;DHT22;13339;50.840;4.346;2023-05-16T04:17:00;11.00;99.90
25410;DHT22;13339;50.840;4.346;2023-05-16T04:19:25;10.90;99.90
25410;DHT22;13339;50.840;4.346;2023-05-16T04:21:51;10.70;99.90
25410;DHT22;13339;50.840;4.346;2023-05-16T04:24:17;10.80;99.90
25410;DHT22;13339;50.840;4.346;2023-05-16T04:26:43;10.70;99.90
25410;DHT22;13339;50.840;4.346;2023-05-16T04:29:09;10.50;99.90
25410;DHT22;13339;50.840;4.346;2023-05-16T04:31:34;10.50;99.90
25410;DHT22;13339;50.840;4.346;2023-05-16T04:34:01;10.50;99.90
25410;DHT22;13339;50.840;4.346;2023-05-16T04:36:27;10.50;99.90
25410;DHT22;13339;50.840;4.346;2023-05-16T04:38:55;10.60;99.90
25410;DHT22;13339;50.840;4.346;2023-05-16T04:41:21;10.80;99.90
25410;DHT22;13339;50.840;4.346;2023-05-16T04:43:48;10.70;99.90
25410;DHT22;13339;50.840;4.346;2023-05-16T04:46:14;10.80;99.90
25410;DHT22;13339;50.840;4.346;2023-05-16T04:48:40;10.80;99.90
25410;DHT22;13339;50.840;4.346;2023-05-16T04:51:06;10.90;99.90
25410;DHT22;13339;50.840;4.346;2023-05-16T04:53:32;10.90;99.90
25410;DHT22;13339;50.840;4.346;2023-05-16T04:55:58;10.90;99.90
25410;DHT22;13339;50.840;4.346;2023-05-16T04:58:24;10.70;99.90
25410;DHT22;13339;50.840;4.346;2023-05-16T05:00:53;10.60;99.90
25410;DHT22;13339;50.840;4.346;2023-05-16T05:03:20;10.30;99.90
25410;DHT22;13339;50.840;4.346;2023-05-16T05:05:46;10.50;99.90
25410;DHT22;13339;50.840;4.346;2023-05-16T05:08:12;10.60;99.90
25410;DHT22;13339;50.840;4.346;2023-05-16T05:10:38;10.70;99.90
25410;DHT22;13339;50.840;4.346;2023-05-16T05:13:04;10.80;99.90
25410;DHT22;13339;50.840;4.346;2023-05-16T05:15:29;10.90;99.90
25410;DHT22;13339;50.840;4.346;2023-05-16T05:17:55;10.80;99.90
25410;DHT22;13339;50.840;4.346;2023-05-16T05:20:21;10.90;99.90
25410;DHT22;13339;50.840;4.346;2023-05-16T05:22:47;11.00;99.90
25410;DHT22;13339;50.840;4.346;2023-05-16T05:25:13;11.00;99.90
25410;DHT22;13339;50.840;4.346;2023-05-16T05:27:38;11.20;99.90
25410;DHT22;13339;50.840;4.346;2023-05-16T05:30:05;11.20;99.90
25410;DHT22;13339;50.840;4.346;2023-05-16T05:32:31;11.10;99.90
25410;DHT22;13339;50.840;4.346;2023-05-16T05:34:57;11.20;99.90
25410;DHT22;13339;50.840;4.346;2023-05-16T05:37:22;11.10;99.90
25410;DHT22;13339;50.840;4.346;2023-05-16T05:39:48;11.10;99.90
25410;DHT22;13339;50.840;4.346;2023-05-16T05:42:14;11.10;99.90
25410;DHT22;13339;50.840;4.346;2023-05-16T05:44:39;10.90;99.90
25410;DHT22;13339;50.840;4.346;2023-05-16T05:47:05;11.00;99.90
25410;DHT22;13339;50.840;4.346;2023-05-16T05:49:32;11.20;99.90
25410;DHT22;13339;50.840;4.346;2023-05-16T05:51:58;11.30;99.90
25410;DHT22;13339;50.840;4.346;2023-05-16T05:54:23;11.50;99.90
25410;DHT22;13339;50.840;4.346;2023-05-16T05:56:49;11.60;99.90
25410;DHT22;13339;50.840;4.346;2023-05-16T05:59:15;11.70;99.90
25410;DHT22;13339;50.840;4.346;2023-05-16T06:01:41;11.80;99.90
25410;DHT22;13339;50.840;4.346;2023-05-16T06:04:08;11.70;99.90
25410;DHT22;13339;50.840;4.346;2023-05-16T06:06:34;11.40;99.90
25410;DHT22;13339;50.840;4.346;2023-05-16T06:09:00;11.40;99.90
25410;DHT22;13339;50.840;4.346;2023-05-16T06:11:25;11.60;99.90
25410;DHT22;13339;50.840;4.346;2023-05-16T06:13:51;11.80;99.90
25410;DHT22;13339;50.840;4.346;2023-05-16T06:16:17;12.00;99.90
25410;DHT22;13339;50.840;4.346;2023-05-16T06:18:43;11.80;99.90
25410;DHT22;13339;50.840;4.346;2023-05-16T06:21:09;11.80;99.90
25410;DHT22;13339;50.840;4.346;2023-05-16T06:23:34;11.80;99.90
25410;DHT22;13339;50.840;4.346;2023-05-16T06:26:01;11.90;99.90
25410;DHT22;13339;50.840;4.346;2023-05-16T06:28:27;11.90;99.90
25410;DHT22;13339;50.840;4.346;2023-05-16T06:30:53;12.10;99.90
25410;DHT22;13339;50.840;4.346;2023-05-16T06:33:19;12.30;99.90
25410;DHT22;13339;50.840;4.346;2023-05-16T06:35:45;12.40;99.90
25410;DHT22;13339;50.840;4.346;2023-05-16T06:38:13;12.60;99.90
25410;DHT22;13339;50.840;4.346;2023-05-16T06:40:39;12.50;99.90
25410;DHT22;13339;50.840;4.346;2023-05-16T06:43:05;12.60;99.90
25410;DHT22;13339;50.840;4.346;2023-05-16T06:45:30;12.70;99.90
25410;DHT22;13339;50.840;4.346;2023-05-16T06:47:56;12.70;99.90
25410;DHT22;13339;50.840;4.346;2023-05-16T06:50:22;12.80;99.90
25410;DHT22;13339;50.840;4.346;2023-05-16T06:52:47;12.80;99.90
25410;DHT22;13339;50.840;4.346;2023-05-16T06:55:13;12.80;99.90
25410;DHT22;13339;50.840;4.346;2023-05-16T06:57:39;12.80;99.90
25410;DHT22;13339;50.840;4.346;2023-05-16T07:00:05;12.80;99.90
25410;DHT22;13339;50.840;4.346;2023-05-16T07:02:31;12.80;99.90
25410;DHT22;13339;50.840;4.346;2023-05-16T07:04:57;12.80;99.90
25410;DHT22;13339;50.840;4.346;2023-05-16T07:07:22;12.70;99.90
25410;DHT22;13339;50.840;4.346;2023-05-16T07:09:48;12.50;99.90
25410;DHT22;13339;50.840;4.346;2023-05-16T07:12:14;12.60;99.90
25410;DHT22;13339;50.840;4.346;2023-05-16T07:14:39;12.70;99.90
25410;DHT22;13339;50.840;4.346;2023-05-16T07:17:06;12.50;99.90
25410;DHT22;13339;50.840;4.346;2023-05-16T07:19:31;12.50;99.90
25410;DHT22;13339;50.840;4.346;2023-05-16T07:21:57;12.60;99.90
25410;DHT22;13339;50.840;4.346;2023-05-16T07:24:23;12.60;99.90
25410;DHT22;13339;50.840;4.346;2023-05-16T07:26:48;12.70;99.90
25410;DHT22;13339;50.840;4.346;2023-05-16T07:29:14;12.70;99.90
25410;DHT22;13339;50.840;4.346;2023-05-16T07:31:40;12.60;99.90
25410;DHT22;13339;50.840;4.346;2023-05-16T07:34:05;12.30;99.90
25410;DHT22;13339;50.840;4.346;2023-05-16T07:36:33;12.20;99.90
25410;DHT22;13339;50.840;4.346;2023-05-16T07:38:59;12.30;99.90
25410;DHT22;13339;50.840;4.346;2023-05-16T07:41:24;12.50;99.90
25410;DHT22;13339;50.840;4.346;2023-05-16T07:43:50;12.60;99.90
25410;DHT22;13339;50.840;4.346;2023-05-16T07:46:16;12.70;99.90
25410;DHT22;13339;50.840;4.346;2023-05-16T07:48:41;12.60;99.90
25410;DHT22;13339;50.840;4.346;2023-05-16T07:51:07;12.70;99.90
25410;DHT22;13339;50.840;4.346;2023-05-16T07:53:33;12.90;99.90
25410;DHT22;13339;50.840;4.346;2023-05-16T07:55:59;13.20;99.90
25410;DHT22;13339;50.840;4.346;2023-05-16T07:58:25;13.20;99.90
25410;DHT22;13339;50.840;4.346;2023-05-16T08:00:50;13.30;99.90
25410;DHT22;13339;50.840;4.346;2023-05-16T08:03:16;13.40;99.90
25410;DHT22;13339;50.840;4.346;2023-05-16T08:05:41;13.50;99.90
25410;DHT22;13339;50.840;4.346;2023-05-16T08:08:07;13.60;99.90
25410;DHT22;13339;50.840;4.346;2023-05-16T08:10:33;13.70;99.90
25410;DHT22;13339;50.840;4.346;2023-05-16T08:12:58;14.00;99.90
25410;DHT22;13339;50.840;4.346;2023-05-16T08:15:26;14.40;99.90
25410;DHT22;13339;50.840;4.346;2023-05-16T08:17:55;14.50;99.90
25410;DHT22;13339;50.840;4.346;2023-05-16T08:20:21;14.70;99.90
25410;DHT22;13339;50.840;4.346;2023-05-16T08:22:47;14.90;99.90
25410;DHT22;13339;50.840;4.346;2023-05-16T08:25:12;15.00;99.90
25410;DHT22;13339;50.840;4.346;2023-05-16T08:27:38;15.40;99.90
25410;DHT22;13339;50.840;4.346;2023-05-16T08:30:05;15.60;99.90
25410;DHT22;13339;50.840;4.346;2023-05-16T08:32:31;15.50;99.90
25410;DHT22;13339;50.840;4.346;2023-05-16T08:34:57;15.30;99.90
25410;DHT22;13339;50.840;4.346;2023-05-16T08:37:22;15.00;99.90
25410;DHT22;13339;50.840;4.346;2023-05-16T08:39:48;14.90;99.90
25410;DHT22;13339;50.840;4.346;2023-05-16T08:42:14;14.70;99.90
25410;DHT22;13339;50.840;4.346;2023-05-16T08:44:40;14.60;99.90
25410;DHT22;13339;50.840;4.346;2023-05-16T08:47:16;14.60;99.90
25410;DHT22;13339;50.840;4.346;2023-05-16T08:49:43;14.60;99.90
25410;DHT22;13339;50.840;4.346;2023-05-16T08:52:09;14.70;99.90
25410;DHT22;13339;50.840;4.346;2023-05-16T08:54:36;14.60;99.90
25410;DHT22;13339;50.840;4.346;2023-05-16T08:57:02;14.50;99.90
25410;DHT22;13339;50.840;4.346;2023-05-16T08:59:29;14.40;99.90
25410;DHT22;13339;50.840;4.346;2023-05-16T09:01:56;14.20;99.90
25410;DHT22;13339;50.840;4.346;2023-05-16T09:04:22;14.10;99.90
25410;DHT22;13339;50.840;4.346;2023-05-16T09:06:49;13.70;99.90
25410;DHT22;13339;50.840;4.346;2023-05-16T09:09:16;13.60;99.90
25410;DHT22;13339;50.840;4.346;2023-05-16T09:11:42;13.80;99.90
25410;DHT22;13339;50.840;4.346;2023-05-16T09:14:07;13.90;99.90
25410;DHT22;13339;50.840;4.346;2023-05-16T09:16:33;14.00;99.90
25410;DHT22;13339;50.840;4.346;2023-05-16T09:19:00;14.10;99.90
25410;DHT22;13339;50.840;4.346;2023-05-16T09:21:31;14.20;99.90
25410;DHT22;13339;50.840;4.346;2023-05-16T09:24:04;14.20;99.90
25410;DHT22;13339;50.840;4.346;2023-05-16T09:26:32;14.50;99.90
25410;DHT22;13339;50.840;4.346;2023-05-16T09:28:57;14.60;99.90
25410;DHT22;13339;50.840;4.346;2023-05-16T09:31:25;14.60;99.90
25410;DHT22;13339;50.840;4.346;2023-05-16T09:33:57;14.60;99.90
25410;DHT22;13339;50.840;4.346;2023-05-16T09:36:23;14.70;99.90
25410;DHT22;13339;50.840;4.346;2023-05-16T09:38:52;14.90;99.90
25410;DHT22;13339;50.840;4.346;2023-05-16T09:41:20;14.70;99.90
25410;DHT22;13339;50.840;4.346;2023-05-16T09:43:46;14.70;99.90
25410;DHT22;13339;50.840;4.346;2023-05-16T09:46:12;14.80;99.90
25410;DHT22;13339;50.840;4.346;2023-05-16T09:48:46;14.90;99.90
25410;DHT22;13339;50.840;4.346;2023-05-16T09:51:13;14.90;99.90
25410;DHT22;13339;50.840;4.346;2023-05-16T09:53:39;14.80;99.90
25410;DHT22;13339;50.840;4.346;2023-05-16T09:56:15;14.60;99.90
25410;DHT22;13339;50.840;4.346;2023-05-16T09:58:43;14.70;99.90
25410;DHT22;13339;50.840;4.346;2023-05-16T10:01:09;14.80;99.90
25410;DHT22;13339;50.840;4.346;2023-05-16T10:03:40;14.90;99.90
25410;DHT22;13339;50.840;4.346;2023-05-16T10:06:07;14.90;99.90
25410;DHT22;13339;50.840;4.346;2023-05-16T10:08:34;15.00;99.90
25410;DHT22;13339;50.840;4.346;2023-05-16T10:11:04;15.10;99.90
25410;DHT22;13339;50.840;4.346;2023-05-16T10:13:35;15.30;99.90
25410;DHT22;13339;50.840;4.346;2023-05-16T10:16:06;15.20;99.90
25410;DHT22;13339;50.840;4.346;2023-05-16T10:18:32;15.20;99.90
25410;DHT22;13339;50.840;4.346;2023-05-16T10:21:09;15.30;99.90
25410;DHT22;13339;50.840;4.346;2023-05-16T10:23:41;15.40;99.90
25410;DHT22;13339;50.840;4.346;2023-05-16T10:26:08;15.40;99.90
25410;DHT22;13339;50.840;4.346;2023-05-16T10:28:34;15.60;99.90
25410;DHT22;13339;50.840;4.346;2023-05-16T10:31:00;15.70;99.90
25410;DHT22;13339;50.840;4.346;2023-05-16T10:33:27;15.40;99.90
25410;DHT22;13339;50.840;4.346;2023-05-16T10:35:54;15.50;99.90
25410;DHT22;13339;50.840;4.346;2023-05-16T10:38:20;15.60;99.90
25410;DHT22;13339;50.840;4.346;2023-05-16T10:40:48;15.80;99.90
25410;DHT22;13339;50.840;4.346;2023-05-16T10:43:28;16.10;99.90
25410;DHT22;13339;50.840;4.346;2023-05-16T10:46:02;16.20;99.90
25410;DHT22;13339;50.840;4.346;2023-05-16T10:48:36;16.30;99.90
25410;DHT22;13339;50.840;4.346;2023-05-16T10:51:04;16.30;99.90
25410;DHT22;13339;50.840;4.346;2023-05-16T10:53:53;16.40;99.90
25410;DHT22;13339;50.840;4.346;2023-05-16T10:56:23;16.00;99.90
25410;DHT22;13339;50.840;4.346;2023-05-16T10:58:49;15.70;99.90
25410;DHT22;13339;50.840;4.346;2023-05-16T11:01:34;15.90;99.90
25410;DHT22;13339;50.840;4.346;2023-05-16T11:04:10;15.80;99.90
25410;DHT22;13339;50.840;4.346;2023-05-16T11:06:43;15.70;99.90
25410;DHT22;13339;50.840;4.346;2023-05-16T11:11:45;15.40;99.90
25410;DHT22;13339;50.840;4.346;2023-05-16T11:17:07;15.80;99.90
25410;DHT22;13339;50.840;4.346;2023-05-16T11:22:11;15.60;99.90
25410;DHT22;13339;50.840;4.346;2023-05-16T11:24:53;15.80;99.90
25410;DHT22;13339;50.840;4.346;2023-05-16T11:27:43;15.90;99.90
25410;DHT22;13339;50.840;4.346;2023-05-16T11:32:40;16.10;99.90
25410;DHT22;13339;50.840;4.346;2023-05-16T11:35:08;16.30;99.90
25410;DHT22;13339;50.840;4.346;2023-05-16T11:37:34;16.40;99.90
25410;DHT22;13339;50.840;4.346;2023-05-16T11:40:05;16.10;99.90
25410;DHT22;13339;50.840;4.346;2023-05-16T11:42:44;16.00;99.90
25410;DHT22;13339;50.840;4.346;2023-05-16T11:45:13;16.30;99.90
25410;DHT22;13339;50.840;4.346;2023-05-16T11:47:40;16.50;99.90
25410;DHT22;13339;50.840;4.346;2023-05-16T11:50:26;16.60;99.90
25410;DHT22;13339;50.840;4.346;2023-05-16T11:52:52;16.40;99.90
25410;DHT22;13339;50.840;4.346;2023-05-16T11:55:26;16.60;99.90
25410;DHT22;13339;50.840;4.346;2023-05-16T11:57:52;16.70;99.90
25410;DHT22;13339;50.840;4.346;2023-05-16T12:00:20;16.60;99.90
25410;DHT22;13339;50.840;4.346;2023-05-16T12:02:48;16.50;99.90
25410;DHT22;13339;50.840;4.346;2023-05-16T12:05:17;16.40;99.90
25410;DHT22;13339;50.840;4.346;2023-05-16T12:07:45;16.30;99.90
25410;DHT22;13339;50.840;4.346;2023-05-16T12:10:15;16.50;99.90
25410;DHT22;13339;50.840;4.346;2023-05-16T12:12:46;16.70;99.90
25410;DHT22;13339;50.840;4.346;2023-05-16T12:15:12;16.90;99.90
25410;DHT22;13339;50.840;4.346;2023-05-16T12:17:39;16.80;99.90
25410;DHT22;13339;50.840;4.346;2023-05-16T12:20:07;16.90;99.90
25410;DHT22;13339;50.840;4.346;2023-05-16T12:22:39;16.80;99.90
25410;DHT22;13339;50.840;4.346;2023-05-16T12:27:56;16.70;99.90
25410;DHT22;13339;50.840;4.346;2023-05-16T12:30:23;16.60;99.90
25410;DHT22;13339;50.840;4.346;2023-05-16T12:32:55;16.60;99.90
25410;DHT22;13339;50.840;4.346;2023-05-16T12:35:21;16.60;99.90
25410;DHT22;13339;50.840;4.346;2023-05-16T12:37:48;16.40;99.90
25410;DHT22;13339;50.840;4.346;2023-05-16T12:40:15;16.50;99.90
25410;DHT22;13339;50.840;4.346;2023-05-16T12:42:44;16.70;99.90
25410;DHT22;13339;50.840;4.346;2023-05-16T12:45:14;16.70;99.90
25410;DHT22;13339;50.840;4.346;2023-05-16T12:47:43;16.90;99.90
25410;DHT22;13339;50.840;4.346;2023-05-16T12:50:12;16.90;99.90
25410;DHT22;13339;50.840;4.346;2023-05-16T12:52:57;17.00;99.90
25410;DHT22;13339;50.840;4.346;2023-05-16T12:55:23;17.00;99.90
25410;DHT22;13339;50.840;4.346;2023-05-16T12:57:49;17.20;99.90
25410;DHT22;13339;50.840;4.346;2023-05-16T13:00:17;17.40;99.90
25410;DHT22;13339;50.840;4.346;2023-05-16T13:02:44;17.60;99.90
25410;DHT22;13339;50.840;4.346;2023-05-16T13:05:10;17.20;99.90
25410;DHT22;13339;50.840;4.346;2023-05-16T13:07:36;17.20;99.90
25410;DHT22;13339;50.840;4.346;2023-05-16T13:10:11;17.50;99.90
25410;DHT22;13339;50.840;4.346;2023-05-16T13:12:37;17.70;99.90
25410;DHT22;13339;50.840;4.346;2023-05-16T13:15:07;17.90;99.90
25410;DHT22;13339;50.840;4.346;2023-05-16T13:17:34;18.00;99.90
25410;DHT22;13339;50.840;4.346;2023-05-16T13:20:00;18.30;99.90
25410;DHT22;13339;50.840;4.346;2023-05-16T13:22:27;18.30;99.90
25410;DHT22;13339;50.840;4.346;2023-05-16T13:24:52;18.00;99.90
25410;DHT22;13339;50.840;4.346;2023-05-16T13:27:18;17.80;99.90
25410;DHT22;13339;50.840;4.346;2023-05-16T13:29:44;17.80;99.90
25410;DHT22;13339;50.840;4.346;2023-05-16T13:32:09;17.60;99.90
25410;DHT22;13339;50.840;4.346;2023-05-16T13:34:35;17.60;99.90
25410;DHT22;13339;50.840;4.346;2023-05-16T13:37:01;17.50;99.90
25410;DHT22;13339;50.840;4.346;2023-05-16T13:39:26;17.60;99.90
25410;DHT22;13339;50.840;4.346;2023-05-16T13:41:52;17.50;99.90
25410;DHT22;13339;50.840;4.346;2023-05-16T13:44:18;17.40;99.90
25410;DHT22;13339;50.840;4.346;2023-05-16T13:46:44;17.20;99.90
25410;DHT22;13339;50.840;4.346;2023-05-16T13:49:10;17.10;99.90
25410;DHT22;13339;50.840;4.346;2023-05-16T13:51:35;17.20;99.90
25410;DHT22;13339;50.840;4.346;2023-05-16T13:54:01;17.40;99.90
25410;DHT22;13339;50.840;4.346;2023-05-16T13:56:27;17.60;99.90
25410;DHT22;13339;50.840;4.346;2023-05-16T13:58:52;17.40;99.90
25410;DHT22;13339;50.840;4.346;2023-05-16T14:01:18;17.30;99.90
25410;DHT22;13339;50.840;4.346;2023-05-16T14:03:43;17.10;99.90
25410;DHT22;13339;50.840;4.346;2023-05-16T14:06:09;16.90;99.90
25410;DHT22;13339;50.840;4.346;2023-05-16T14:08:35;17.10;99.90
25410;DHT22;13339;50.840;4.346;2023-05-16T14:11:00;17.30;99.90
25410;DHT22;13339;50.840;4.346;2023-05-16T14:13:26;17.40;99.90
25410;DHT22;13339;50.840;4.346;2023-05-16T14:15:52;17.30;99.90
25410;DHT22;13339;50.840;4.346;2023-05-16T14:18:18;16.90;99.90
25410;DHT22;13339;50.840;4.346;2023-05-16T14:20:43;16.90;99.90
25410;DHT22;13339;50.840;4.346;2023-05-16T14:23:09;17.20;99.90
25410;DHT22;13339;50.840;4.346;2023-05-16T14:25:35;17.50;99.90
25410;DHT22;13339;50.840;4.346;2023-05-16T14:28:00;17.70;99.90
25410;DHT22;13339;50.840;4.346;2023-05-16T14:30:26;17.70;99.90
25410;DHT22;13339;50.840;4.346;2023-05-16T14:32:52;17.60;99.90
25410;DHT22;13339;50.840;4.346;2023-05-16T14:35:17;17.50;99.90
25410;DHT22;13339;50.840;4.346;2023-05-16T14:37:43;17.30;99.90
25410;DHT22;13339;50.840;4.346;2023-05-16T14:40:09;17.00;99.90
25410;DHT22;13339;50.840;4.346;2023-05-16T14:42:35;17.00;99.90
25410;DHT22;13339;50.840;4.346;2023-05-16T14:45:01;17.20;99.90
25410;DHT22;13339;50.840;4.346;2023-05-16T14:47:26;17.30;99.90
25410;DHT22;13339;50.840;4.346;2023-05-16T14:49:53;17.30;99.90
25410;DHT22;13339;50.840;4.346;2023-05-16T14:52:19;17.40;99.90
25410;DHT22;13339;50.840;4.346;2023-05-16T14:54:45;17.50;99.90
25410;DHT22;13339;50.840;4.346;2023-05-16T14:57:11;17.60;99.90
25410;DHT22;13339;50.840;4.346;2023-05-16T14:59:36;17.50;99.90
25410;DHT22;13339;50.840;4.346;2023-05-16T15:02:02;17.30;99.90
25410;DHT22;13339;50.840;4.346;2023-05-16T15:04:28;17.30;99.90
25410;DHT22;13339;50.840;4.346;2023-05-16T15:06:54;17.30;99.90
25410;DHT22;13339;50.840;4.346;2023-05-16T15:09:20;17.20;99.90
25410;DHT22;13339;50.840;4.346;2023-05-16T15:11:46;17.10;99.90
25410;DHT22;13339;50.840;4.346;2023-05-16T15:14:12;17.00;99.90
25410;DHT22;13339;50.840;4.346;2023-05-16T15:16:37;17.00;99.90
25410;DHT22;13339;50.840;4.346;2023-05-16T15:19:03;16.90;99.90
25410;DHT22;13339;50.840;4.346;2023-05-16T15:21:28;16.60;99.90
25410;DHT22;13339;50.840;4.346;2023-05-16T15:23:56;16.60;99.90
25410;DHT22;13339;50.840;4.346;2023-05-16T15:26:22;16.80;99.90
25410;DHT22;13339;50.840;4.346;2023-05-16T15:28:49;16.90;99.90
25410;DHT22;13339;50.840;4.346;2023-05-16T15:31:15;16.90;99.90
25410;DHT22;13339;50.840;4.346;2023-05-16T15:33:40;16.90;99.90
25410;DHT22;13339;50.840;4.346;2023-05-16T15:36:06;17.00;99.90
25410;DHT22;13339;50.840;4.346;2023-05-16T15:38:32;16.80;99.90
25410;DHT22;13339;50.840;4.346;2023-05-16T15:40:58;16.60;99.90
25410;DHT22;13339;50.840;4.346;2023-05-16T15:43:23;16.50;99.90
25410;DHT22;13339;50.840;4.346;2023-05-16T15:45:49;16.70;99.90
25410;DHT22;13339;50.840;4.346;2023-05-16T15:48:15;16.90;99.90
25410;DHT22;13339;50.840;4.346;2023-05-16T15:50:40;17.10;99.90
25410;DHT22;13339;50.840;4.346;2023-05-16T15:53:07;17.40;99.90
25410;DHT22;13339;50.840;4.346;2023-05-16T15:55:33;17.60;99.90
25410;DHT22;13339;50.840;4.346;2023-05-16T15:57:59;17.80;99.90
25410;DHT22;13339;50.840;4.346;2023-05-16T16:00:25;17.70;99.90
25410;DHT22;13339;50.840;4.346;2023-05-16T16:02:50;17.30;99.90
25410;DHT22;13339;50.840;4.346;2023-05-16T16:05:16;17.40;99.90